Caribe Navigator — V2PW6 — position and weather

sailwx.info

Track history (hours):
 
Tides and Currents Weather Stations Pressure Air Temp Water Temp Dewpoint Dewpoint Depression Visibility Wind Speed Wind Dir Waves Ship Positions

Caribe Navigator

Last reported at 2018-Jul-16 17:46 UTC. Time now 2018-Jul-17 11:38 UTC.
Position N 20°40' W 086°57'.

Length 100 m; draft 4.9 m.

Type: Cargo ship. MMSI: 305289000.

Date/timePositionNaut miles runAvg speedWind from/ knotsBaromVisibWave heightAir tempDewpointWater temp
2018-Jul-16 17:46N 20°40' W 086°57'413.8
2018-Jul-16 17:30N 20°37' W 086°59'713.3
2018-Jul-16 17:00N 20°31' W 087°02'10 0.2
2018-Jul-14 20:43N 20°22' W 087°05'211.2
2018-Jul-14 20:30N 20°24' W 087°04'611.6
2018-Jul-14 20:00N 20°29' W 087°01'612.7
2018-Jul-14 19:30N 20°34' W 086°57'47812.9
2018-Jul-13 06:29N 25°21' W 080°02'611.8
2018-Jul-13 06:00N 25°27' W 080°01'612.3
2018-Jul-13 05:30N 25°33' W 080°01'612.8
2018-Jul-13 05:00N 25°39' W 080°01'713.6
2018-Jul-13 04:30N 25°46' W 080°02'714.2
2018-Jul-13 04:00N 25°53' W 080°03'714.7
2018-Jul-13 03:30N 26°01' W 080°04'611.1
2018-Jul-13 03:00N 26°06' W 080°07'0 0.9
2018-Jul-13 02:28N 26°05' W 080°07'0 0.0
2018-Jul-13 01:58N 26°05' W 080°07'0 0.0
2018-Jul-13 01:28N 26°05' W 080°07'0 0.0
2018-Jul-13 00:58N 26°05' W 080°07'0 0.0
2018-Jul-13 00:19N 26°05' W 080°07'0 0.0
2018-Jul-12 23:59N 26°05' W 080°07'0 0.0
2018-Jul-12 23:30N 26°05' W 080°07'0 0.0
2018-Jul-12 23:00N 26°05' W 080°07'0 0.0
2018-Jul-12 22:30N 26°05' W 080°07'0 0.0
2018-Jul-12 22:00N 26°05' W 080°07'0 0.0
2018-Jul-12 21:30N 26°05' W 080°07'0 0.0
2018-Jul-12 21:00N 26°05' W 080°07'0 0.0
2018-Jul-12 20:30N 26°05' W 080°07'0 0.0
2018-Jul-12 20:00N 26°05' W 080°07'0 0.0
2018-Jul-12 19:30N 26°05' W 080°07'0 0.4
2018-Jul-12 19:00N 26°06' W 080°07'3 6.3
2018-Jul-12 18:30N 26°05' W 080°04'5 9.3
2018-Jul-12 18:00N 26°00' W 080°02'3 5.3
2018-Jul-12 17:30N 25°58' W 080°01'2 3.9
2018-Jul-12 17:00N 25°56' W 080°01'2 3.4
2018-Jul-12 16:30N 25°54' W 080°01'1 2.1
2018-Jul-12 16:00N 25°53' W 080°01'1 2.2
2018-Jul-12 15:31N 25°52' W 080°01'3 6.4
2018-Jul-12 15:00N 25°49' W 080°02'510.2
2018-Jul-12 14:30N 25°45' W 080°06'3 6.4
2018-Jul-12 14:00N 25°46' W 080°10'0 0.0
2018-Jul-12 13:30N 25°46' W 080°10'0 0.0
2018-Jul-12 13:00N 25°46' W 080°10'0 0.0
2018-Jul-12 12:30N 25°46' W 080°10'0 0.0
2018-Jul-12 12:00N 25°46' W 080°10'0 0.0
2018-Jul-12 11:30N 25°46' W 080°10'0 0.0
2018-Jul-12 11:00N 25°46' W 080°10'0 0.0
2018-Jul-12 10:30N 25°46' W 080°10'0 0.0
2018-Jul-12 10:00N 25°46' W 080°10'0 0.0
2018-Jul-12 09:30N 25°46' W 080°10'0 0.0
2018-Jul-12 09:00N 25°46' W 080°10'0 0.0
2018-Jul-12 08:30N 25°46' W 080°10'0 0.0
2018-Jul-12 08:00N 25°46' W 080°10'0 0.0
2018-Jul-12 07:30N 25°46' W 080°10'0 0.0
2018-Jul-12 07:00N 25°46' W 080°10'0 0.0
2018-Jul-12 06:30N 25°46' W 080°10'0 0.0
2018-Jul-12 06:00N 25°46' W 080°10'0 0.0
2018-Jul-12 05:30N 25°46' W 080°10'0 0.0
2018-Jul-12 05:00N 25°46' W 080°10'0 0.0
2018-Jul-12 04:30N 25°46' W 080°10'0 0.0
2018-Jul-12 04:00N 25°46' W 080°10'0 0.0
2018-Jul-12 03:30N 25°46' W 080°10'0 0.0
2018-Jul-12 03:00N 25°46' W 080°10'0 0.0
2018-Jul-12 02:30N 25°46' W 080°10'0 0.0
2018-Jul-12 02:00N 25°46' W 080°10'0 0.0
2018-Jul-12 01:30N 25°46' W 080°10'0 0.0
2018-Jul-12 01:00N 25°46' W 080°10'0 0.0
2018-Jul-12 00:30N 25°46' W 080°10'0 0.0
2018-Jul-12 00:00N 25°46' W 080°10'0 0.0
2018-Jul-11 23:30N 25°46' W 080°10'0 0.0
2018-Jul-11 23:00N 25°46' W 080°10'0 0.0
2018-Jul-11 22:30N 25°46' W 080°10'0 0.0
2018-Jul-11 22:00N 25°46' W 080°10'0 0.0
2018-Jul-11 21:30N 25°46' W 080°10'0 0.0
2018-Jul-11 21:00N 25°46' W 080°10'0 0.6
2018-Jul-11 20:30N 25°46' W 080°10'5 9.4
2018-Jul-11 20:00N 25°46' W 080°05'3 6.6
2018-Jul-11 19:31N 25°44' W 080°02'1 1.1
2018-Jul-11 19:00N 25°44' W 080°02'611.8
2018-Jul-11 18:30N 25°39' W 079°60'611.3
2018-Jul-11 18:00N 25°33' W 079°58'48610.0
2018-Jul-09 17:34N 20°39' W 086°58'117.7
2018-Jul-09 17:30N 20°38' W 086°59'917.6
2018-Jul-09 17:00N 20°30' W 087°03'815.7
2018-Jul-09 16:30N 20°22' W 087°06'611.4
2018-Jul-09 16:00N 20°28' W 087°04'2 1.6
2018-Jul-09 14:52N 20°26' W 087°05'3 0.1
2018-Jul-07 21:14N 20°23' W 087°05'313.2
2018-Jul-07 20:59N 20°26' W 087°03'1 1.5
2018-Jul-07 20:29N 20°27' W 087°04'5 9.4
2018-Jul-07 19:58N 20°31' W 087°01'2 3.7
2018-Jul-07 19:30N 20°32' W 086°60'4 8.9
2018-Jul-07 19:00N 20°29' W 087°03'612.3
2018-Jul-07 18:30N 20°33' W 086°58'  
Track history (hours):
 
Tides and Currents Weather Stations Pressure Air Temp Water Temp Dewpoint Dewpoint Depression Visibility Wind Speed Wind Dir Waves Ship Positions

Caribe Navigator

Last reported at 2018-Jul-16 17:46 UTC. Time now 2018-Jul-17 11:38 UTC.
Position N 20°40' W 086°57'.

Length 100 m; draft 4.9 m.

Type: Cargo ship. MMSI: 305289000.

Date/timePositionNaut miles runAvg speedWind from/ knotsBaromVisibWave heightAir tempDewpointWater temp
2018-Jul-16 17:46N 20°40' W 086°57'413.8
2018-Jul-16 17:30N 20°37' W 086°59'713.3
2018-Jul-16 17:00N 20°31' W 087°02'10 0.2
2018-Jul-14 20:43N 20°22' W 087°05'211.2
2018-Jul-14 20:30N 20°24' W 087°04'611.6
2018-Jul-14 20:00N 20°29' W 087°01'612.7
2018-Jul-14 19:30N 20°34' W 086°57'47812.9
2018-Jul-13 06:29N 25°21' W 080°02'611.8
2018-Jul-13 06:00N 25°27' W 080°01'612.3
2018-Jul-13 05:30N 25°33' W 080°01'612.8
2018-Jul-13 05:00N 25°39' W 080°01'713.6
2018-Jul-13 04:30N 25°46' W 080°02'714.2
2018-Jul-13 04:00N 25°53' W 080°03'714.7
2018-Jul-13 03:30N 26°01' W 080°04'611.1
2018-Jul-13 03:00N 26°06' W 080°07'0 0.9
2018-Jul-13 02:28N 26°05' W 080°07'0 0.0
2018-Jul-13 01:58N 26°05' W 080°07'0 0.0
2018-Jul-13 01:28N 26°05' W 080°07'0 0.0
2018-Jul-13 00:58N 26°05' W 080°07'0 0.0
2018-Jul-13 00:19N 26°05' W 080°07'0 0.0
2018-Jul-12 23:59N 26°05' W 080°07'0 0.0
2018-Jul-12 23:30N 26°05' W 080°07'0 0.0
2018-Jul-12 23:00N 26°05' W 080°07'0 0.0
2018-Jul-12 22:30N 26°05' W 080°07'0 0.0
2018-Jul-12 22:00N 26°05' W 080°07'0 0.0
2018-Jul-12 21:30N 26°05' W 080°07'0 0.0
2018-Jul-12 21:00N 26°05' W 080°07'0 0.0
2018-Jul-12 20:30N 26°05' W 080°07'0 0.0
2018-Jul-12 20:00N 26°05' W 080°07'0 0.0
2018-Jul-12 19:30N 26°05' W 080°07'0 0.4
2018-Jul-12 19:00N 26°06' W 080°07'3 6.3
2018-Jul-12 18:30N 26°05' W 080°04'5 9.3
2018-Jul-12 18:00N 26°00' W 080°02'3 5.3
2018-Jul-12 17:30N 25°58' W 080°01'2 3.9
2018-Jul-12 17:00N 25°56' W 080°01'2 3.4
2018-Jul-12 16:30N 25°54' W 080°01'1 2.1
2018-Jul-12 16:00N 25°53' W 080°01'1 2.2
2018-Jul-12 15:31N 25°52' W 080°01'3 6.4
2018-Jul-12 15:00N 25°49' W 080°02'510.2
2018-Jul-12 14:30N 25°45' W 080°06'3 6.4
2018-Jul-12 14:00N 25°46' W 080°10'0 0.0
2018-Jul-12 13:30N 25°46' W 080°10'0 0.0
2018-Jul-12 13:00N 25°46' W 080°10'0 0.0
2018-Jul-12 12:30N 25°46' W 080°10'0 0.0
2018-Jul-12 12:00N 25°46' W 080°10'0 0.0
2018-Jul-12 11:30N 25°46' W 080°10'0 0.0
2018-Jul-12 11:00N 25°46' W 080°10'0 0.0
2018-Jul-12 10:30N 25°46' W 080°10'0 0.0
2018-Jul-12 10:00N 25°46' W 080°10'0 0.0
2018-Jul-12 09:30N 25°46' W 080°10'0 0.0
2018-Jul-12 09:00N 25°46' W 080°10'0 0.0
2018-Jul-12 08:30N 25°46' W 080°10'0 0.0
2018-Jul-12 08:00N 25°46' W 080°10'0 0.0
2018-Jul-12 07:30N 25°46' W 080°10'0 0.0
2018-Jul-12 07:00N 25°46' W 080°10'0 0.0
2018-Jul-12 06:30N 25°46' W 080°10'0 0.0
2018-Jul-12 06:00N 25°46' W 080°10'0 0.0
2018-Jul-12 05:30N 25°46' W 080°10'0 0.0
2018-Jul-12 05:00N 25°46' W 080°10'0 0.0
2018-Jul-12 04:30N 25°46' W 080°10'0 0.0
2018-Jul-12 04:00N 25°46' W 080°10'0 0.0
2018-Jul-12 03:30N 25°46' W 080°10'0 0.0
2018-Jul-12 03:00N 25°46' W 080°10'0 0.0
2018-Jul-12 02:30N 25°46' W 080°10'0 0.0
2018-Jul-12 02:00N 25°46' W 080°10'0 0.0
2018-Jul-12 01:30N 25°46' W 080°10'0 0.0
2018-Jul-12 01:00N 25°46' W 080°10'0 0.0
2018-Jul-12 00:30N 25°46' W 080°10'0 0.0
2018-Jul-12 00:00N 25°46' W 080°10'0 0.0
2018-Jul-11 23:30N 25°46' W 080°10'0 0.0
2018-Jul-11 23:00N 25°46' W 080°10'0 0.0
2018-Jul-11 22:30N 25°46' W 080°10'0 0.0
2018-Jul-11 22:00N 25°46' W 080°10'0 0.0
2018-Jul-11 21:30N 25°46' W 080°10'0 0.0
2018-Jul-11 21:00N 25°46' W 080°10'0 0.6
2018-Jul-11 20:30N 25°46' W 080°10'5 9.4
2018-Jul-11 20:00N 25°46' W 080°05'3 6.6
2018-Jul-11 19:31N 25°44' W 080°02'1 1.1
2018-Jul-11 19:00N 25°44' W 080°02'611.8
2018-Jul-11 18:30N 25°39' W 079°60'611.3
2018-Jul-11 18:00N 25°33' W 079°58'48610.0
2018-Jul-09 17:34N 20°39' W 086°58'117.7
2018-Jul-09 17:30N 20°38' W 086°59'917.6
2018-Jul-09 17:00N 20°30' W 087°03'815.7
2018-Jul-09 16:30N 20°22' W 087°06'611.4
2018-Jul-09 16:00N 20°28' W 087°04'2 1.6
2018-Jul-09 14:52N 20°26' W 087°05'3 0.1
2018-Jul-07 21:14N 20°23' W 087°05'313.2
2018-Jul-07 20:59N 20°26' W 087°03'1 1.5
2018-Jul-07 20:29N 20°27' W 087°04'5 9.4
2018-Jul-07 19:58N 20°31' W 087°01'2 3.7
2018-Jul-07 19:30N 20°32' W 086°60'4 8.9
2018-Jul-07 19:00N 20°29' W 087°03'612.3
2018-Jul-07 18:30N 20°33' W 086°58'  

Dump ship's entire track history